sensor_id;sensor_type;location;lat;lon;timestamp;pressure;altitude;pressure_sealevel;temperature;humidity
43155;BME280;34212;51.018;13.586;2024-01-10T00:02:12;99263.06;;;-5.69;67.00
43155;BME280;34212;51.018;13.586;2024-01-10T00:07:14;99266.56;;;-5.70;66.76
43155;BME280;34212;51.018;13.586;2024-01-10T00:12:15;99267.50;;;-5.72;66.62
43155;BME280;34212;51.018;13.586;2024-01-10T00:17:17;99259.72;;;-5.74;66.64
43155;BME280;34212;51.018;13.586;2024-01-10T00:22:19;99258.03;;;-5.75;66.59
43155;BME280;34212;51.018;13.586;2024-01-10T00:27:20;99252.84;;;-5.75;66.50
43155;BME280;34212;51.018;13.586;2024-01-10T00:32:21;99263.31;;;-5.78;66.91
43155;BME280;34212;51.018;13.586;2024-01-10T00:37:23;99268.69;;;-5.84;66.71
43155;BME280;34212;51.018;13.586;2024-01-10T00:42:25;99253.25;;;-5.90;66.29
43155;BME280;34212;51.018;13.586;2024-01-10T00:47:26;99253.47;;;-5.96;66.02
43155;BME280;34212;51.018;13.586;2024-01-10T00:52:28;99255.28;;;-6.00;65.98
43155;BME280;34212;51.018;13.586;2024-01-10T00:57:29;99255.31;;;-6.01;65.64
43155;BME280;34212;51.018;13.586;2024-01-10T01:02:31;99258.75;;;-5.99;66.17
43155;BME280;34212;51.018;13.586;2024-01-10T01:07:33;99247.38;;;-5.95;66.01
43155;BME280;34212;51.018;13.586;2024-01-10T01:12:34;99248.88;;;-5.88;66.37
43155;BME280;34212;51.018;13.586;2024-01-10T01:17:36;99243.53;;;-5.82;66.86
43155;BME280;34212;51.018;13.586;2024-01-10T01:22:38;99254.53;;;-5.74;66.86
43155;BME280;34212;51.018;13.586;2024-01-10T01:27:39;99252.66;;;-5.69;66.95
43155;BME280;34212;51.018;13.586;2024-01-10T01:32:41;99251.69;;;-5.65;66.87
43155;BME280;34212;51.018;13.586;2024-01-10T01:37:42;99241.16;;;-5.60;67.48
43155;BME280;34212;51.018;13.586;2024-01-10T01:42:47;99246.13;;;-5.52;67.53
43155;BME280;34212;51.018;13.586;2024-01-10T01:47:49;99249.53;;;-5.50;67.43
43155;BME280;34212;51.018;13.586;2024-01-10T01:52:51;99246.94;;;-5.50;67.02
43155;BME280;34212;51.018;13.586;2024-01-10T01:57:53;99246.09;;;-5.51;67.30
43155;BME280;34212;51.018;13.586;2024-01-10T02:02:55;99238.31;;;-5.52;67.52
43155;BME280;34212;51.018;13.586;2024-01-10T02:07:58;99228.84;;;-5.53;66.87
43155;BME280;34212;51.018;13.586;2024-01-10T02:12:59;99232.31;;;-5.54;67.01
43155;BME280;34212;51.018;13.586;2024-01-10T02:18:01;99234.91;;;-5.54;67.25
43155;BME280;34212;51.018;13.586;2024-01-10T02:23:02;99234.06;;;-5.55;67.38
43155;BME280;34212;51.018;13.586;2024-01-10T02:28:04;99228.03;;;-5.55;67.10
43155;BME280;34212;51.018;13.586;2024-01-10T02:33:06;99230.69;;;-5.57;67.37
43155;BME280;34212;51.018;13.586;2024-01-10T02:38:08;99238.56;;;-5.60;67.03
43155;BME280;34212;51.018;13.586;2024-01-10T02:43:09;99230.78;;;-5.62;67.30
43155;BME280;34212;51.018;13.586;2024-01-10T02:48:11;99225.59;;;-5.62;67.29
43155;BME280;34212;51.018;13.586;2024-01-10T02:53:13;99219.63;;;-5.65;67.21
43155;BME280;34212;51.018;13.586;2024-01-10T02:58:14;99212.78;;;-5.68;67.12
43155;BME280;34212;51.018;13.586;2024-01-10T03:03:16;99218.88;;;-5.69;66.83
43155;BME280;34212;51.018;13.586;2024-01-10T03:08:17;99220.63;;;-5.69;66.94
43155;BME280;34212;51.018;13.586;2024-01-10T03:13:19;99209.41;;;-5.71;67.16
43155;BME280;34212;51.018;13.586;2024-01-10T03:18:20;99206.88;;;-5.73;67.24
43155;BME280;34212;51.018;13.586;2024-01-10T03:23:22;99212.16;;;-5.76;67.11
43155;BME280;34212;51.018;13.586;2024-01-10T03:28:24;99212.94;;;-5.74;66.76
43155;BME280;34212;51.018;13.586;2024-01-10T03:33:25;99211.25;;;-5.75;67.13
43155;BME280;34212;51.018;13.586;2024-01-10T03:38:27;99201.72;;;-5.74;67.06
43155;BME280;34212;51.018;13.586;2024-01-10T03:43:28;99202.53;;;-5.72;67.11
43155;BME280;34212;51.018;13.586;2024-01-10T03:48:30;99193.81;;;-5.70;67.40
43155;BME280;34212;51.018;13.586;2024-01-10T03:53:31;99192.84;;;-5.67;67.73
43155;BME280;34212;51.018;13.586;2024-01-10T03:58:33;99186.59;;;-5.62;67.44
43155;BME280;34212;51.018;13.586;2024-01-10T04:03:35;99184.81;;;-5.60;67.41
43155;BME280;34212;51.018;13.586;2024-01-10T04:08:37;99184.72;;;-5.57;67.76
43155;BME280;34212;51.018;13.586;2024-01-10T04:13:39;99186.44;;;-5.55;67.37
43155;BME280;34212;51.018;13.586;2024-01-10T04:18:40;99187.28;;;-5.55;67.75
43155;BME280;34212;51.018;13.586;2024-01-10T04:23:42;99186.44;;;-5.55;67.60
43155;BME280;34212;51.018;13.586;2024-01-10T04:28:44;99187.25;;;-5.53;67.83
43155;BME280;34212;51.018;13.586;2024-01-10T04:33:45;99185.41;;;-5.50;67.89
43155;BME280;34212;51.018;13.586;2024-01-10T04:38:47;99185.31;;;-5.47;68.18
43155;BME280;34212;51.018;13.586;2024-01-10T04:43:48;99194.69;;;-5.41;68.55
43155;BME280;34212;51.018;13.586;2024-01-10T04:48:50;99193.59;;;-5.34;68.41
43155;BME280;34212;51.018;13.586;2024-01-10T04:53:51;99183.91;;;-5.29;68.17
43155;BME280;34212;51.018;13.586;2024-01-10T04:58:53;99184.69;;;-5.27;68.57
43155;BME280;34212;51.018;13.586;2024-01-10T05:03:54;99192.47;;;-5.27;68.24
43155;BME280;34212;51.018;13.586;2024-01-10T05:08:56;99187.28;;;-5.27;68.51
43155;BME280;34212;51.018;13.586;2024-01-10T05:13:59;99189.88;;;-5.27;68.70
43155;BME280;34212;51.018;13.586;2024-01-10T05:19:01;99192.38;;;-5.24;68.89
43155;BME280;34212;51.018;13.586;2024-01-10T05:24:05;99195.00;;;-5.24;68.73
43155;BME280;34212;51.018;13.586;2024-01-10T05:29:07;99195.06;;;-5.25;68.57
43155;BME280;34212;51.018;13.586;2024-01-10T05:34:09;99199.41;;;-5.26;68.41
43155;BME280;34212;51.018;13.586;2024-01-10T05:39:11;99198.47;;;-5.23;68.05
43155;BME280;34212;51.018;13.586;2024-01-10T05:44:13;99190.59;;;-5.22;68.26
43155;BME280;34212;51.018;13.586;2024-01-10T05:49:15;99190.59;;;-5.22;68.15
43155;BME280;34212;51.018;13.586;2024-01-10T05:54:16;99197.50;;;-5.21;67.89
43155;BME280;34212;51.018;13.586;2024-01-10T05:59:19;99196.72;;;-5.23;68.11
43155;BME280;34212;51.018;13.586;2024-01-10T06:04:21;99197.66;;;-5.25;67.87
43155;BME280;34212;51.018;13.586;2024-01-10T06:09:22;99190.78;;;-5.28;67.67
43155;BME280;34212;51.018;13.586;2024-01-10T06:14:24;99192.56;;;-5.30;68.15
43155;BME280;34212;51.018;13.586;2024-01-10T06:19:25;99191.72;;;-5.30;67.64
43155;BME280;34212;51.018;13.586;2024-01-10T06:24:27;99192.56;;;-5.30;67.58
43155;BME280;34212;51.018;13.586;2024-01-10T06:29:29;99202.88;;;-5.27;68.16
43155;BME280;34212;51.018;13.586;2024-01-10T06:34:31;99205.38;;;-5.22;68.04
43155;BME280;34212;51.018;13.586;2024-01-10T06:39:33;99197.41;;;-5.18;68.15
43155;BME280;34212;51.018;13.586;2024-01-10T06:44:34;99200.72;;;-5.13;68.17
43155;BME280;34212;51.018;13.586;2024-01-10T06:49:36;99198.94;;;-5.11;68.33
43155;BME280;34212;51.018;13.586;2024-01-10T06:54:39;99207.50;;;-5.07;68.87
43155;BME280;34212;51.018;13.586;2024-01-10T06:59:40;99199.59;;;-5.04;69.07
43155;BME280;34212;51.018;13.586;2024-01-10T07:04:42;99204.72;;;-5.02;68.74
43155;BME280;34212;51.018;13.586;2024-01-10T07:09:44;99205.53;;;-5.00;69.32
43155;BME280;34212;51.018;13.586;2024-01-10T07:14:45;99209.84;;;-4.99;69.16
43155;BME280;34212;51.018;13.586;2024-01-10T07:19:48;99209.63;;;-4.93;69.13
43155;BME280;34212;51.018;13.586;2024-01-10T07:24:49;99196.50;;;-4.89;69.59
43155;BME280;34212;51.018;13.586;2024-01-10T07:29:51;99198.03;;;-4.83;69.38
43155;BME280;34212;51.018;13.586;2024-01-10T07:34:52;99196.03;;;-4.75;69.57
43155;BME280;34212;51.018;13.586;2024-01-10T07:39:54;99201.78;;;-4.65;69.82
43155;BME280;34212;51.018;13.586;2024-01-10T07:44:55;99205.94;;;-4.59;70.24
43155;BME280;34212;51.018;13.586;2024-01-10T07:49:58;99203.13;;;-4.53;70.38
43155;BME280;34212;51.018;13.586;2024-01-10T07:55:00;99209.91;;;-4.48;70.31
43155;BME280;34212;51.018;13.586;2024-01-10T08:00:06;99194.91;;;-4.41;70.58
43155;BME280;34212;51.018;13.586;2024-01-10T08:05:11;99205.00;;;-4.32;70.67
43155;BME280;34212;51.018;13.586;2024-01-10T08:10:14;99204.69;;;-4.23;71.08
43155;BME280;34212;51.018;13.586;2024-01-10T08:15:16;99204.38;;;-4.13;71.58
43155;BME280;34212;51.018;13.586;2024-01-10T08:20:18;99206.66;;;-4.04;71.48
43155;BME280;34212;51.018;13.586;2024-01-10T08:25:22;99202.88;;;-3.96;71.62
43155;BME280;34212;51.018;13.586;2024-01-10T08:30:24;99200.78;;;-3.86;71.67
43155;BME280;34212;51.018;13.586;2024-01-10T08:35:26;99210.06;;;-3.79;72.17
43155;BME280;34212;51.018;13.586;2024-01-10T08:40:29;99207.13;;;-3.69;72.06
43155;BME280;34212;51.018;13.586;2024-01-10T08:45:33;99208.47;;;-3.59;72.03
43155;BME280;34212;51.018;13.586;2024-01-10T08:50:35;99205.53;;;-3.50;72.00
43155;BME280;34212;51.018;13.586;2024-01-10T08:55:36;99199.13;;;-3.41;72.14
43155;BME280;34212;51.018;13.586;2024-01-10T09:00:41;99196.06;;;-3.31;72.52
43155;BME280;34212;51.018;13.586;2024-01-10T09:05:42;99197.31;;;-3.17;72.83
43155;BME280;34212;51.018;13.586;2024-01-10T09:10:57;99207.31;;;-3.07;72.96
43155;BME280;34212;51.018;13.586;2024-01-10T09:15:59;99199.97;;;-2.97;73.14
43155;BME280;34212;51.018;13.586;2024-01-10T09:21:00;99196.28;;;-2.91;73.29
43155;BME280;34212;51.018;13.586;2024-01-10T09:26:02;99201.19;;;-2.84;72.96
43155;BME280;34212;51.018;13.586;2024-01-10T09:31:03;99199.97;;;-2.75;73.38
43155;BME280;34212;51.018;13.586;2024-01-10T09:36:05;99201.44;;;-2.68;73.61
43155;BME280;34212;51.018;13.586;2024-01-10T09:41:07;99200.19;;;-2.59;73.74
43155;BME280;34212;51.018;13.586;2024-01-10T09:46:09;99195.50;;;-2.51;74.23
43155;BME280;34212;51.018;13.586;2024-01-10T09:51:12;99196.03;;;-2.43;73.87
43155;BME280;34212;51.018;13.586;2024-01-10T09:56:14;99196.50;;;-2.33;74.21
43155;BME280;34212;51.018;13.586;2024-01-10T10:01:16;99184.78;;;-2.24;74.66
43155;BME280;34212;51.018;13.586;2024-01-10T10:06:18;99183.66;;;-2.19;74.52
43155;BME280;34212;51.018;13.586;2024-01-10T10:11:20;99179.00;;;-2.12;74.69
43155;BME280;34212;51.018;13.586;2024-01-10T10:16:24;99178.59;;;-2.03;74.87
43155;BME280;34212;51.018;13.586;2024-01-10T10:21:28;99179.91;;;-1.93;75.32
43155;BME280;34212;51.018;13.586;2024-01-10T10:26:33;99173.41;;;-1.84;75.49
43155;BME280;34212;51.018;13.586;2024-01-10T10:31:35;99178.22;;;-1.75;76.59
43155;BME280;34212;51.018;13.586;2024-01-10T10:36:36;99168.22;;;-1.65;76.65
43155;BME280;34212;51.018;13.586;2024-01-10T10:41:38;99173.88;;;-1.55;76.70
43155;BME280;34212;51.018;13.586;2024-01-10T10:46:40;99174.16;;;-1.43;76.57
43155;BME280;34212;51.018;13.586;2024-01-10T10:51:44;99169.34;;;-1.33;76.79
43155;BME280;34212;51.018;13.586;2024-01-10T10:56:46;99171.44;;;-1.22;77.15
43155;BME280;34212;51.018;13.586;2024-01-10T11:01:49;99171.84;;;-1.12;77.38
43155;BME280;34212;51.018;13.586;2024-01-10T11:06:51;99169.66;;;-1.03;77.24
43155;BME280;34212;51.018;13.586;2024-01-10T11:12:14;99161.31;;;-0.94;77.72
43155;BME280;34212;51.018;13.586;2024-01-10T17:57:26;99130.38;;;-1.58;76.36
43155;BME280;34212;51.018;13.586;2024-01-10T18:02:29;99127.63;;;-1.55;75.76
43155;BME280;34212;51.018;13.586;2024-01-10T18:07:31;99132.78;;;-1.53;75.42
43155;BME280;34212;51.018;13.586;2024-01-10T18:12:33;99124.09;;;-1.54;75.67
43155;BME280;34212;51.018;13.586;2024-01-10T18:17:39;99118.00;;;-1.54;75.80
43155;BME280;34212;51.018;13.586;2024-01-10T18:22:41;99118.94;;;-1.55;75.40
43155;BME280;34212;51.018;13.586;2024-01-10T18:27:43;99114.59;;;-1.56;75.45
43155;BME280;34212;51.018;13.586;2024-01-10T18:32:46;99112.81;;;-1.56;75.49
43155;BME280;34212;51.018;13.586;2024-01-10T18:37:48;99113.63;;;-1.54;75.31
43155;BME280;34212;51.018;13.586;2024-01-10T18:42:50;99133.75;;;-1.56;75.48
43155;BME280;34212;51.018;13.586;2024-01-10T18:47:52;99132.34;;;-1.63;74.79
43155;BME280;34212;51.018;13.586;2024-01-10T18:52:54;99134.34;;;-1.68;75.11
43155;BME280;34212;51.018;13.586;2024-01-10T18:57:56;99126.00;;;-1.76;74.50
43155;BME280;34212;51.018;13.586;2024-01-10T19:02:58;99123.66;;;-1.82;74.39
43155;BME280;34212;51.018;13.586;2024-01-10T19:08:02;99125.50;;;-1.84;74.33
43155;BME280;34212;51.018;13.586;2024-01-10T19:13:04;99129.88;;;-1.85;74.41
43155;BME280;34212;51.018;13.586;2024-01-10T19:18:05;99122.25;;;-1.90;74.39
43155;BME280;34212;51.018;13.586;2024-01-10T19:23:07;99120.53;;;-1.91;74.39
43155;BME280;34212;51.018;13.586;2024-01-10T19:28:09;99125.91;;;-1.94;74.05
43155;BME280;34212;51.018;13.586;2024-01-10T19:33:10;99107.84;;;-1.98;73.94
43155;BME280;34212;51.018;13.586;2024-01-10T19:38:12;99108.94;;;-2.04;73.65
43155;BME280;34212;51.018;13.586;2024-01-10T19:43:22;99110.78;;;-2.06;73.48
43155;BME280;34212;51.018;13.586;2024-01-10T19:48:24;99108.16;;;-2.06;73.74
43155;BME280;34212;51.018;13.586;2024-01-10T19:53:25;99112.63;;;-2.08;73.55
43155;BME280;34212;51.018;13.586;2024-01-10T19:58:27;99118.19;;;-2.16;73.38
43155;BME280;34212;51.018;13.586;2024-01-10T20:03:29;99108.09;;;-2.23;73.35
43155;BME280;34212;51.018;13.586;2024-01-10T20:08:30;99109.13;;;-2.27;73.29
43155;BME280;34212;51.018;13.586;2024-01-10T20:13:33;99107.56;;;-2.32;73.31
43155;BME280;34212;51.018;13.586;2024-01-10T20:18:35;99121.47;;;-2.31;73.33
43155;BME280;34212;51.018;13.586;2024-01-10T20:23:37;99124.09;;;-2.31;73.48
43155;BME280;34212;51.018;13.586;2024-01-10T20:28:39;99114.44;;;-2.29;73.67
43155;BME280;34212;51.018;13.586;2024-01-10T20:33:40;99131.75;;;-2.26;73.64
43155;BME280;34212;51.018;13.586;2024-01-10T20:38:42;99140.09;;;-2.39;73.40
43155;BME280;34212;51.018;13.586;2024-01-10T20:43:44;99134.22;;;-2.44;73.21
43155;BME280;34212;51.018;13.586;2024-01-10T20:48:46;99135.19;;;-2.46;73.10
43155;BME280;34212;51.018;13.586;2024-01-10T20:53:47;99143.25;;;-2.51;73.02
43155;BME280;34212;51.018;13.586;2024-01-10T20:58:49;99146.97;;;-2.57;73.03
43155;BME280;34212;51.018;13.586;2024-01-10T21:03:50;99142.78;;;-2.61;72.39
43155;BME280;34212;51.018;13.586;2024-01-10T21:08:52;99147.22;;;-2.63;72.84
43155;BME280;34212;51.018;13.586;2024-01-10T21:13:53;99149.13;;;-2.66;73.10
43155;BME280;34212;51.018;13.586;2024-01-10T21:18:55;99153.53;;;-2.68;73.35
43155;BME280;34212;51.018;13.586;2024-01-10T21:23:58;99155.53;;;-2.73;73.08
43155;BME280;34212;51.018;13.586;2024-01-10T21:28:59;99150.44;;;-2.76;72.88
43155;BME280;34212;51.018;13.586;2024-01-10T21:34:01;99150.44;;;-2.76;72.89
43155;BME280;34212;51.018;13.586;2024-01-10T21:39:03;99152.25;;;-2.79;72.54
43155;BME280;34212;51.018;13.586;2024-01-10T21:44:05;99152.38;;;-2.82;72.52
43155;BME280;34212;51.018;13.586;2024-01-10T21:49:07;99159.53;;;-2.87;71.93
43155;BME280;34212;51.018;13.586;2024-01-10T21:54:08;99161.50;;;-2.92;71.98
43155;BME280;34212;51.018;13.586;2024-01-10T21:59:10;99165.66;;;-3.08;71.97
43155;BME280;34212;51.018;13.586;2024-01-10T22:04:12;99165.66;;;-3.08;72.30
43155;BME280;34212;51.018;13.586;2024-01-10T22:09:13;99174.13;;;-3.03;72.49
43155;BME280;34212;51.018;13.586;2024-01-10T22:14:15;99178.44;;;-3.02;71.61
43155;BME280;34212;51.018;13.586;2024-01-10T22:19:17;99181.94;;;-3.03;71.66
43155;BME280;34212;51.018;13.586;2024-01-10T22:24:18;99172.44;;;-3.04;71.50
43155;BME280;34212;51.018;13.586;2024-01-10T22:29:20;99189.78;;;-3.03;71.40
43155;BME280;34212;51.018;13.586;2024-01-10T22:34:22;99178.56;;;-3.05;71.58
43155;BME280;34212;51.018;13.586;2024-01-10T22:39:24;99179.59;;;-3.09;71.61
43155;BME280;34212;51.018;13.586;2024-01-10T22:44:25;99168.50;;;-3.14;71.52
43155;BME280;34212;51.018;13.586;2024-01-10T22:49:27;99169.38;;;-3.15;71.54
43155;BME280;34212;51.018;13.586;2024-01-10T22:54:28;99166.13;;;-3.20;71.37
43155;BME280;34212;51.018;13.586;2024-01-10T22:59:31;99167.34;;;-3.29;71.48
43155;BME280;34212;51.018;13.586;2024-01-10T23:04:32;99177.28;;;-3.39;71.31
43155;BME280;34212;51.018;13.586;2024-01-10T23:09:34;99175.06;;;-3.50;71.42
43155;BME280;34212;51.018;13.586;2024-01-10T23:14:35;99170.81;;;-3.52;71.34
43155;BME280;34212;51.018;13.586;2024-01-10T23:19:37;99162.09;;;-3.51;71.10
43155;BME280;34212;51.018;13.586;2024-01-10T23:24:39;99155.16;;;-3.52;70.62
43155;BME280;34212;51.018;13.586;2024-01-10T23:29:41;99157.97;;;-3.57;70.58
43155;BME280;34212;51.018;13.586;2024-01-10T23:34:44;99152.13;;;-3.63;71.16
43155;BME280;34212;51.018;13.586;2024-01-10T23:39:45;99152.38;;;-3.69;71.29
43155;BME280;34212;51.018;13.586;2024-01-10T23:44:47;99154.06;;;-3.68;71.29
43155;BME280;34212;51.018;13.586;2024-01-10T23:49:48;99141.81;;;-3.66;71.19
43155;BME280;34212;51.018;13.586;2024-01-10T23:54:51;99143.28;;;-3.59;71.20
43155;BME280;34212;51.018;13.586;2024-01-10T23:59:52;99136.13;;;-3.54;70.90
